sensor_id;sensor_type;location;lat;lon;timestamp;P1;durP1;ratioP1;P2;durP2;ratioP2
30872;SDS011;17579;42.690;2.586;2022-08-03T00:00:51;1.48;;;1.38;;
30872;SDS011;17579;42.690;2.586;2022-08-03T00:03:17;1.70;;;1.60;;
30872;SDS011;17579;42.690;2.586;2022-08-03T00:05:42;1.67;;;1.58;;
30872;SDS011;17579;42.690;2.586;2022-08-03T00:08:08;1.73;;;1.63;;
30872;SDS011;17579;42.690;2.586;2022-08-03T00:10:35;1.88;;;1.55;;
30872;SDS011;17579;42.690;2.586;2022-08-03T00:13:02;1.75;;;1.30;;
30872;SDS011;17579;42.690;2.586;2022-08-03T00:15:28;1.50;;;1.40;;
30872;SDS011;17579;42.690;2.586;2022-08-03T00:17:53;3.10;;;1.55;;
30872;SDS011;17579;42.690;2.586;2022-08-03T00:20:20;1.20;;;1.20;;
30872;SDS011;17579;42.690;2.586;2022-08-03T00:22:46;1.70;;;1.60;;
30872;SDS011;17579;42.690;2.586;2022-08-03T00:25:12;1.33;;;1.30;;
30872;SDS011;17579;42.690;2.586;2022-08-03T00:27:38;1.48;;;1.38;;
30872;SDS011;17579;42.690;2.586;2022-08-03T00:30:04;1.50;;;1.40;;
30872;SDS011;17579;42.690;2.586;2022-08-03T00:32:30;1.58;;;1.45;;
30872;SDS011;17579;42.690;2.586;2022-08-03T00:34:55;1.60;;;1.50;;
30872;SDS011;17579;42.690;2.586;2022-08-03T00:37:21;1.70;;;1.60;;
30872;SDS011;17579;42.690;2.586;2022-08-03T00:39:46;1.67;;;1.40;;
30872;SDS011;17579;42.690;2.586;2022-08-03T00:42:12;3.67;;;1.20;;
30872;SDS011;17579;42.690;2.586;2022-08-03T00:44:38;1.58;;;1.48;;
30872;SDS011;17579;42.690;2.586;2022-08-03T00:47:05;1.20;;;1.20;;
30872;SDS011;17579;42.690;2.586;2022-08-03T00:49:31;2.28;;;1.40;;
30872;SDS011;17579;42.690;2.586;2022-08-03T00:51:56;1.55;;;1.42;;
30872;SDS011;17579;42.690;2.586;2022-08-03T00:54:24;1.42;;;1.33;;
30872;SDS011;17579;42.690;2.586;2022-08-03T00:56:50;1.25;;;1.25;;
30872;SDS011;17579;42.690;2.586;2022-08-03T00:59:16;2.05;;;1.40;;
30872;SDS011;17579;42.690;2.586;2022-08-03T01:01:42;1.60;;;1.50;;
30872;SDS011;17579;42.690;2.586;2022-08-03T01:04:08;1.45;;;1.35;;
30872;SDS011;17579;42.690;2.586;2022-08-03T01:06:40;1.48;;;1.38;;
30872;SDS011;17579;42.690;2.586;2022-08-03T01:09:18;1.40;;;1.30;;
30872;SDS011;17579;42.690;2.586;2022-08-03T01:12:04;1.85;;;1.75;;
30872;SDS011;17579;42.690;2.586;2022-08-03T01:14:40;1.58;;;1.48;;
30872;SDS011;17579;42.690;2.586;2022-08-03T01:20:11;1.80;;;1.40;;
30872;SDS011;17579;42.690;2.586;2022-08-03T01:22:59;2.50;;;1.80;;
30872;SDS011;17579;42.690;2.586;2022-08-03T01:31:24;1.70;;;1.60;;
30872;SDS011;17579;42.690;2.586;2022-08-03T01:33:56;1.60;;;1.50;;
30872;SDS011;17579;42.690;2.586;2022-08-03T01:36:35;1.73;;;1.63;;
30872;SDS011;17579;42.690;2.586;2022-08-03T01:39:06;1.65;;;1.55;;
30872;SDS011;17579;42.690;2.586;2022-08-03T01:41:36;1.40;;;1.30;;
30872;SDS011;17579;42.690;2.586;2022-08-03T01:44:11;1.40;;;1.23;;
30872;SDS011;17579;42.690;2.586;2022-08-03T01:46:39;1.75;;;1.40;;
30872;SDS011;17579;42.690;2.586;2022-08-03T01:49:06;1.40;;;1.30;;
30872;SDS011;17579;42.690;2.586;2022-08-03T01:51:36;1.23;;;1.15;;
30872;SDS011;17579;42.690;2.586;2022-08-03T01:54:03;1.60;;;1.50;;
30872;SDS011;17579;42.690;2.586;2022-08-03T01:56:31;1.83;;;1.73;;
30872;SDS011;17579;42.690;2.586;2022-08-03T01:58:57;1.33;;;1.23;;
30872;SDS011;17579;42.690;2.586;2022-08-03T02:01:26;1.55;;;1.40;;
30872;SDS011;17579;42.690;2.586;2022-08-03T02:03:53;1.98;;;1.38;;
30872;SDS011;17579;42.690;2.586;2022-08-03T02:06:20;2.53;;;1.55;;
30872;SDS011;17579;42.690;2.586;2022-08-03T02:08:47;1.42;;;1.33;;
30872;SDS011;17579;42.690;2.586;2022-08-03T02:11:16;1.73;;;1.63;;
30872;SDS011;17579;42.690;2.586;2022-08-03T02:13:42;1.60;;;1.50;;
30872;SDS011;17579;42.690;2.586;2022-08-03T02:16:10;1.48;;;1.35;;
30872;SDS011;17579;42.690;2.586;2022-08-03T02:18:38;1.52;;;1.42;;
30872;SDS011;17579;42.690;2.586;2022-08-03T02:21:04;1.15;;;1.10;;
30872;SDS011;17579;42.690;2.586;2022-08-03T02:23:34;1.60;;;1.50;;
30872;SDS011;17579;42.690;2.586;2022-08-03T02:26:01;2.72;;;1.40;;
30872;SDS011;17579;42.690;2.586;2022-08-03T02:28:34;1.35;;;1.25;;
30872;SDS011;17579;42.690;2.586;2022-08-03T02:31:02;1.60;;;1.40;;
30872;SDS011;17579;42.690;2.586;2022-08-03T02:33:33;1.70;;;1.60;;
30872;SDS011;17579;42.690;2.586;2022-08-03T02:36:03;1.85;;;1.27;;
30872;SDS011;17579;42.690;2.586;2022-08-03T02:38:31;1.50;;;1.40;;
30872;SDS011;17579;42.690;2.586;2022-08-03T02:41:00;1.58;;;1.48;;
30872;SDS011;17579;42.690;2.586;2022-08-03T02:43:32;1.25;;;1.15;;
30872;SDS011;17579;42.690;2.586;2022-08-03T02:46:00;1.13;;;1.13;;
30872;SDS011;17579;42.690;2.586;2022-08-03T02:48:28;1.35;;;1.25;;
30872;SDS011;17579;42.690;2.586;2022-08-03T02:50:57;1.13;;;1.13;;
30872;SDS011;17579;42.690;2.586;2022-08-03T02:53:24;1.10;;;1.10;;
30872;SDS011;17579;42.690;2.586;2022-08-03T02:55:51;1.42;;;1.33;;
30872;SDS011;17579;42.690;2.586;2022-08-03T02:58:19;1.55;;;1.17;;
30872;SDS011;17579;42.690;2.586;2022-08-03T03:00:47;1.48;;;1.38;;
30872;SDS011;17579;42.690;2.586;2022-08-03T03:03:15;2.25;;;1.50;;
30872;SDS011;17579;42.690;2.586;2022-08-03T03:05:42;1.58;;;1.40;;
30872;SDS011;17579;42.690;2.586;2022-08-03T03:08:11;1.52;;;1.42;;
30872;SDS011;17579;42.690;2.586;2022-08-03T03:10:38;1.40;;;1.30;;
30872;SDS011;17579;42.690;2.586;2022-08-03T03:13:05;1.35;;;1.25;;
30872;SDS011;17579;42.690;2.586;2022-08-03T03:15:32;1.13;;;1.10;;
30872;SDS011;17579;42.690;2.586;2022-08-03T03:18:01;3.05;;;1.33;;
30872;SDS011;17579;42.690;2.586;2022-08-03T03:20:28;3.75;;;1.55;;
30872;SDS011;17579;42.690;2.586;2022-08-03T03:22:54;1.50;;;1.40;;
30872;SDS011;17579;42.690;2.586;2022-08-03T03:25:22;1.88;;;1.35;;
30872;SDS011;17579;42.690;2.586;2022-08-03T03:27:49;1.33;;;1.27;;
30872;SDS011;17579;42.690;2.586;2022-08-03T03:30:15;1.38;;;1.27;;
30872;SDS011;17579;42.690;2.586;2022-08-03T03:32:40;1.17;;;1.17;;
30872;SDS011;17579;42.690;2.586;2022-08-03T03:35:06;1.30;;;1.23;;
30872;SDS011;17579;42.690;2.586;2022-08-03T03:37:33;1.70;;;1.60;;
30872;SDS011;17579;42.690;2.586;2022-08-03T03:39:59;2.05;;;1.40;;
30872;SDS011;17579;42.690;2.586;2022-08-03T03:42:25;1.60;;;1.50;;
30872;SDS011;17579;42.690;2.586;2022-08-03T03:44:51;2.22;;;1.30;;
30872;SDS011;17579;42.690;2.586;2022-08-03T03:47:17;1.50;;;1.40;;
30872;SDS011;17579;42.690;2.586;2022-08-03T03:49:42;1.63;;;1.52;;
30872;SDS011;17579;42.690;2.586;2022-08-03T03:52:09;1.65;;;1.55;;
30872;SDS011;17579;42.690;2.586;2022-08-03T03:54:38;1.70;;;1.60;;
30872;SDS011;17579;42.690;2.586;2022-08-03T03:57:05;1.77;;;1.67;;
30872;SDS011;17579;42.690;2.586;2022-08-03T03:59:30;1.80;;;1.70;;
30872;SDS011;17579;42.690;2.586;2022-08-03T04:01:57;1.60;;;1.50;;
30872;SDS011;17579;42.690;2.586;2022-08-03T04:04:22;2.17;;;1.60;;
30872;SDS011;17579;42.690;2.586;2022-08-03T04:07:00;1.95;;;1.40;;
30872;SDS011;17579;42.690;2.586;2022-08-03T04:09:38;1.67;;;1.40;;
30872;SDS011;17579;42.690;2.586;2022-08-03T04:12:17;1.48;;;1.38;;
30872;SDS011;17579;42.690;2.586;2022-08-03T04:14:45;1.80;;;1.38;;
30872;SDS011;17579;42.690;2.586;2022-08-03T04:17:12;4.38;;;1.38;;
30872;SDS011;17579;42.690;2.586;2022-08-03T04:19:40;1.60;;;1.50;;
30872;SDS011;17579;42.690;2.586;2022-08-03T04:22:09;1.67;;;1.58;;
30872;SDS011;17579;42.690;2.586;2022-08-03T04:24:38;2.47;;;2.00;;
30872;SDS011;17579;42.690;2.586;2022-08-03T04:27:08;1.88;;;1.77;;
30872;SDS011;17579;42.690;2.586;2022-08-03T04:29:36;1.23;;;1.13;;
30872;SDS011;17579;42.690;2.586;2022-08-03T04:32:05;1.35;;;1.25;;
30872;SDS011;17579;42.690;2.586;2022-08-03T04:34:33;1.48;;;1.38;;
30872;SDS011;17579;42.690;2.586;2022-08-03T04:36:59;1.60;;;1.50;;
30872;SDS011;17579;42.690;2.586;2022-08-03T04:39:28;1.60;;;1.50;;
30872;SDS011;17579;42.690;2.586;2022-08-03T04:41:57;1.67;;;1.58;;
30872;SDS011;17579;42.690;2.586;2022-08-03T04:44:25;2.58;;;1.38;;
30872;SDS011;17579;42.690;2.586;2022-08-03T04:46:52;1.30;;;1.20;;
30872;SDS011;17579;42.690;2.586;2022-08-03T04:49:19;2.47;;;1.40;;
30872;SDS011;17579;42.690;2.586;2022-08-03T04:51:46;1.40;;;1.38;;
30872;SDS011;17579;42.690;2.586;2022-08-03T04:54:14;2.80;;;1.40;;
30872;SDS011;17579;42.690;2.586;2022-08-03T04:56:41;1.52;;;1.42;;
30872;SDS011;17579;42.690;2.586;2022-08-03T04:59:08;1.45;;;1.35;;
30872;SDS011;17579;42.690;2.586;2022-08-03T05:01:34;1.48;;;1.38;;
30872;SDS011;17579;42.690;2.586;2022-08-03T05:04:01;1.40;;;1.30;;
30872;SDS011;17579;42.690;2.586;2022-08-03T05:06:26;1.50;;;1.40;;
30872;SDS011;17579;42.690;2.586;2022-08-03T05:08:52;1.52;;;1.42;;
30872;SDS011;17579;42.690;2.586;2022-08-03T05:11:18;1.23;;;1.13;;
30872;SDS011;17579;42.690;2.586;2022-08-03T05:13:44;1.38;;;1.30;;
30872;SDS011;17579;42.690;2.586;2022-08-03T05:16:10;1.40;;;1.30;;
30872;SDS011;17579;42.690;2.586;2022-08-03T05:18:37;1.80;;;1.55;;
30872;SDS011;17579;42.690;2.586;2022-08-03T05:21:03;1.88;;;1.77;;
30872;SDS011;17579;42.690;2.586;2022-08-03T05:23:29;1.35;;;1.25;;
30872;SDS011;17579;42.690;2.586;2022-08-03T05:25:55;1.42;;;1.33;;
30872;SDS011;17579;42.690;2.586;2022-08-03T05:28:21;1.30;;;1.30;;
30872;SDS011;17579;42.690;2.586;2022-08-03T05:30:46;1.60;;;1.50;;
30872;SDS011;17579;42.690;2.586;2022-08-03T05:33:12;1.50;;;1.40;;
30872;SDS011;17579;42.690;2.586;2022-08-03T05:35:38;1.60;;;1.50;;
30872;SDS011;17579;42.690;2.586;2022-08-03T05:38:04;1.50;;;1.40;;
30872;SDS011;17579;42.690;2.586;2022-08-03T05:40:30;3.15;;;1.40;;
30872;SDS011;17579;42.690;2.586;2022-08-03T05:42:56;1.65;;;1.55;;
30872;SDS011;17579;42.690;2.586;2022-08-03T05:45:23;1.75;;;1.65;;
30872;SDS011;17579;42.690;2.586;2022-08-03T05:47:49;2.75;;;1.63;;
30872;SDS011;17579;42.690;2.586;2022-08-03T05:50:15;4.25;;;1.67;;
30872;SDS011;17579;42.690;2.586;2022-08-03T05:52:42;2.45;;;1.75;;
30872;SDS011;17579;42.690;2.586;2022-08-03T05:55:09;1.83;;;1.73;;
30872;SDS011;17579;42.690;2.586;2022-08-03T05:57:35;2.00;;;1.90;;
30872;SDS011;17579;42.690;2.586;2022-08-03T06:00:05;1.73;;;1.63;;
30872;SDS011;17579;42.690;2.586;2022-08-03T06:02:33;2.45;;;1.67;;
30872;SDS011;17579;42.690;2.586;2022-08-03T06:04:58;2.25;;;2.08;;
30872;SDS011;17579;42.690;2.586;2022-08-03T06:07:24;3.63;;;2.07;;
30872;SDS011;17579;42.690;2.586;2022-08-03T06:09:50;2.83;;;1.85;;
30872;SDS011;17579;42.690;2.586;2022-08-03T06:12:16;2.22;;;2.05;;
30872;SDS011;17579;42.690;2.586;2022-08-03T06:14:41;3.67;;;2.00;;
30872;SDS011;17579;42.690;2.586;2022-08-03T06:17:07;2.50;;;2.30;;
30872;SDS011;17579;42.690;2.586;2022-08-03T06:19:33;3.25;;;2.08;;
30872;SDS011;17579;42.690;2.586;2022-08-03T06:21:58;2.58;;;2.38;;
30872;SDS011;17579;42.690;2.586;2022-08-03T06:24:24;2.17;;;1.85;;
30872;SDS011;17579;42.690;2.586;2022-08-03T06:26:50;2.80;;;2.50;;
30872;SDS011;17579;42.690;2.586;2022-08-03T06:29:15;4.45;;;2.85;;
30872;SDS011;17579;42.690;2.586;2022-08-03T06:31:41;3.05;;;2.78;;
30872;SDS011;17579;42.690;2.586;2022-08-03T06:34:07;3.58;;;2.65;;
30872;SDS011;17579;42.690;2.586;2022-08-03T06:36:32;3.58;;;2.88;;
30872;SDS011;17579;42.690;2.586;2022-08-03T06:38:58;3.28;;;2.83;;
30872;SDS011;17579;42.690;2.586;2022-08-03T06:41:25;3.13;;;2.63;;
30872;SDS011;17579;42.690;2.586;2022-08-03T06:43:51;2.92;;;2.72;;
30872;SDS011;17579;42.690;2.586;2022-08-03T06:46:17;3.15;;;2.65;;
30872;SDS011;17579;42.690;2.586;2022-08-03T06:48:43;7.22;;;2.58;;
30872;SDS011;17579;42.690;2.586;2022-08-03T06:51:08;2.67;;;2.47;;
30872;SDS011;17579;42.690;2.586;2022-08-03T06:53:34;3.22;;;2.60;;
30872;SDS011;17579;42.690;2.586;2022-08-03T06:56:00;4.15;;;2.60;;
30872;SDS011;17579;42.690;2.586;2022-08-03T06:58:26;3.30;;;3.00;;
30872;SDS011;17579;42.690;2.586;2022-08-03T07:00:51;3.15;;;2.88;;
30872;SDS011;17579;42.690;2.586;2022-08-03T07:03:17;3.13;;;2.80;;
30872;SDS011;17579;42.690;2.586;2022-08-03T07:05:43;3.47;;;2.72;;
30872;SDS011;17579;42.690;2.586;2022-08-03T07:08:11;3.17;;;2.88;;
30872;SDS011;17579;42.690;2.586;2022-08-03T07:10:36;4.00;;;3.00;;
30872;SDS011;17579;42.690;2.586;2022-08-03T07:13:02;3.83;;;3.00;;
30872;SDS011;17579;42.690;2.586;2022-08-03T07:15:28;3.28;;;2.97;;
30872;SDS011;17579;42.690;2.586;2022-08-03T07:17:55;3.47;;;3.17;;
30872;SDS011;17579;42.690;2.586;2022-08-03T07:20:22;3.03;;;2.80;;
30872;SDS011;17579;42.690;2.586;2022-08-03T07:22:49;3.22;;;2.97;;
30872;SDS011;17579;42.690;2.586;2022-08-03T07:25:16;4.30;;;3.08;;
30872;SDS011;17579;42.690;2.586;2022-08-03T07:27:46;4.60;;;3.22;;
30872;SDS011;17579;42.690;2.586;2022-08-03T07:30:13;3.42;;;3.13;;
30872;SDS011;17579;42.690;2.586;2022-08-03T07:32:39;3.70;;;3.40;;
30872;SDS011;17579;42.690;2.586;2022-08-03T07:35:06;3.50;;;3.20;;
30872;SDS011;17579;42.690;2.586;2022-08-03T07:37:32;3.90;;;3.28;;
30872;SDS011;17579;42.690;2.586;2022-08-03T07:39:59;3.42;;;3.22;;
30872;SDS011;17579;42.690;2.586;2022-08-03T07:42:26;3.67;;;3.38;;
30872;SDS011;17579;42.690;2.586;2022-08-03T07:44:52;5.50;;;3.60;;
30872;SDS011;17579;42.690;2.586;2022-08-03T07:47:19;6.95;;;3.92;;
30872;SDS011;17579;42.690;2.586;2022-08-03T07:49:48;4.68;;;4.22;;
30872;SDS011;17579;42.690;2.586;2022-08-03T07:52:14;4.70;;;3.85;;
30872;SDS011;17579;42.690;2.586;2022-08-03T07:54:51;5.15;;;4.18;;
30872;SDS011;17579;42.690;2.586;2022-08-03T07:57:17;4.35;;;3.92;;
30872;SDS011;17579;42.690;2.586;2022-08-03T07:59:44;4.88;;;3.85;;
30872;SDS011;17579;42.690;2.586;2022-08-03T08:02:10;4.93;;;4.43;;
30872;SDS011;17579;42.690;2.586;2022-08-03T08:04:36;4.53;;;4.13;;
30872;SDS011;17579;42.690;2.586;2022-08-03T08:07:01;5.00;;;4.00;;
30872;SDS011;17579;42.690;2.586;2022-08-03T08:09:27;4.38;;;3.97;;
30872;SDS011;17579;42.690;2.586;2022-08-03T08:11:52;4.22;;;3.80;;
30872;SDS011;17579;42.690;2.586;2022-08-03T08:14:18;4.78;;;3.78;;
30872;SDS011;17579;42.690;2.586;2022-08-03T08:16:43;5.35;;;3.95;;
30872;SDS011;17579;42.690;2.586;2022-08-03T08:19:10;5.63;;;3.80;;
30872;SDS011;17579;42.690;2.586;2022-08-03T08:21:35;4.00;;;3.60;;
30872;SDS011;17579;42.690;2.586;2022-08-03T08:24:01;4.80;;;4.15;;
30872;SDS011;17579;42.690;2.586;2022-08-03T08:26:27;5.45;;;3.85;;
30872;SDS011;17579;42.690;2.586;2022-08-03T08:28:52;4.60;;;4.20;;
30872;SDS011;17579;42.690;2.586;2022-08-03T08:31:18;4.97;;;3.88;;
30872;SDS011;17579;42.690;2.586;2022-08-03T08:33:43;4.95;;;4.53;;
30872;SDS011;17579;42.690;2.586;2022-08-03T08:36:09;5.82;;;4.18;;
30872;SDS011;17579;42.690;2.586;2022-08-03T08:38:35;4.55;;;4.15;;
30872;SDS011;17579;42.690;2.586;2022-08-03T08:41:00;4.55;;;3.95;;
30872;SDS011;17579;42.690;2.586;2022-08-03T08:43:26;5.05;;;4.45;;
30872;SDS011;17579;42.690;2.586;2022-08-03T08:45:52;4.75;;;4.10;;
30872;SDS011;17579;42.690;2.586;2022-08-03T08:48:23;4.32;;;3.97;;
30872;SDS011;17579;42.690;2.586;2022-08-03T08:50:54;4.78;;;4.38;;
30872;SDS011;17579;42.690;2.586;2022-08-03T08:53:22;6.70;;;5.15;;
30872;SDS011;17579;42.690;2.586;2022-08-03T08:55:50;5.95;;;4.30;;
30872;SDS011;17579;42.690;2.586;2022-08-03T08:58:19;4.57;;;3.78;;
30872;SDS011;17579;42.690;2.586;2022-08-03T09:00:47;4.18;;;3.75;;
30872;SDS011;17579;42.690;2.586;2022-08-03T09:03:13;4.93;;;4.53;;
30872;SDS011;17579;42.690;2.586;2022-08-03T09:05:41;5.38;;;4.47;;
30872;SDS011;17579;42.690;2.586;2022-08-03T09:08:07;5.72;;;4.60;;
30872;SDS011;17579;42.690;2.586;2022-08-03T09:10:33;4.78;;;4.35;;
30872;SDS011;17579;42.690;2.586;2022-08-03T09:12:59;4.88;;;4.20;;
30872;SDS011;17579;42.690;2.586;2022-08-03T09:15:29;4.55;;;4.15;;
30872;SDS011;17579;42.690;2.586;2022-08-03T09:17:57;4.80;;;4.40;;
30872;SDS011;17579;42.690;2.586;2022-08-03T09:20:27;4.72;;;4.00;;
30872;SDS011;17579;42.690;2.586;2022-08-03T09:22:57;5.30;;;4.18;;
30872;SDS011;17579;42.690;2.586;2022-08-03T09:25:29;6.90;;;4.47;;
30872;SDS011;17579;42.690;2.586;2022-08-03T09:28:07;5.00;;;4.50;;
30872;SDS011;17579;42.690;2.586;2022-08-03T09:30:37;7.38;;;4.68;;
30872;SDS011;17579;42.690;2.586;2022-08-03T09:33:05;6.88;;;4.13;;
30872;SDS011;17579;42.690;2.586;2022-08-03T09:35:33;6.32;;;4.78;;
30872;SDS011;17579;42.690;2.586;2022-08-03T09:38:15;6.40;;;4.60;;
30872;SDS011;17579;42.690;2.586;2022-08-03T09:40:42;7.60;;;4.50;;
30872;SDS011;17579;42.690;2.586;2022-08-03T09:43:09;6.88;;;5.00;;
30872;SDS011;17579;42.690;2.586;2022-08-03T09:45:37;6.95;;;4.93;;
30872;SDS011;17579;42.690;2.586;2022-08-03T09:50:59;5.10;;;4.60;;
30872;SDS011;17579;42.690;2.586;2022-08-03T09:53:25;5.43;;;4.90;;
30872;SDS011;17579;42.690;2.586;2022-08-03T09:55:58;9.95;;;6.03;;
30872;SDS011;17579;42.690;2.586;2022-08-03T09:58:27;13.57;;;7.68;;
30872;SDS011;17579;42.690;2.586;2022-08-03T10:01:01;6.55;;;5.82;;
30872;SDS011;17579;42.690;2.586;2022-08-03T10:03:30;7.28;;;5.68;;
30872;SDS011;17579;42.690;2.586;2022-08-03T10:05:57;7.60;;;6.07;;
30872;SDS011;17579;42.690;2.586;2022-08-03T10:08:23;7.28;;;5.75;;
30872;SDS011;17579;42.690;2.586;2022-08-03T10:10:50;8.73;;;5.28;;
30872;SDS011;17579;42.690;2.586;2022-08-03T10:13:18;6.68;;;5.70;;
30872;SDS011;17579;42.690;2.586;2022-08-03T10:15:46;6.88;;;5.40;;
30872;SDS011;17579;42.690;2.586;2022-08-03T10:18:12;7.28;;;5.30;;
30872;SDS011;17579;42.690;2.586;2022-08-03T10:23:17;6.45;;;5.85;;
30872;SDS011;17579;42.690;2.586;2022-08-03T10:25:48;6.38;;;5.78;;
30872;SDS011;17579;42.690;2.586;2022-08-03T10:28:18;6.63;;;5.20;;
30872;SDS011;17579;42.690;2.586;2022-08-03T10:30:49;5.25;;;4.82;;
30872;SDS011;17579;42.690;2.586;2022-08-03T10:33:19;6.10;;;5.07;;
30872;SDS011;17579;42.690;2.586;2022-08-03T10:35:53;5.53;;;5.13;;
30872;SDS011;17579;42.690;2.586;2022-08-03T10:38:22;6.90;;;5.07;;
30872;SDS011;17579;42.690;2.586;2022-08-03T10:40:53;5.50;;;5.10;;
30872;SDS011;17579;42.690;2.586;2022-08-03T10:43:21;8.20;;;5.45;;
30872;SDS011;17579;42.690;2.586;2022-08-03T10:45:50;7.28;;;4.80;;
30872;SDS011;17579;42.690;2.586;2022-08-03T10:48:16;8.30;;;5.40;;
30872;SDS011;17579;42.690;2.586;2022-08-03T10:50:43;4.97;;;4.57;;
30872;SDS011;17579;42.690;2.586;2022-08-03T10:53:09;4.80;;;4.40;;
30872;SDS011;17579;42.690;2.586;2022-08-03T10:55:42;5.00;;;4.53;;
30872;SDS011;17579;42.690;2.586;2022-08-03T11:01:18;5.32;;;4.82;;
30872;SDS011;17579;42.690;2.586;2022-08-03T11:04:19;5.75;;;4.85;;
30872;SDS011;17579;42.690;2.586;2022-08-03T11:06:45;5.35;;;4.78;;
30872;SDS011;17579;42.690;2.586;2022-08-03T11:09:16;6.93;;;4.95;;
30872;SDS011;17579;42.690;2.586;2022-08-03T11:11:43;4.90;;;4.10;;
30872;SDS011;17579;42.690;2.586;2022-08-03T11:14:14;4.90;;;4.47;;
30872;SDS011;17579;42.690;2.586;2022-08-03T11:16:43;5.47;;;4.97;;
30872;SDS011;17579;42.690;2.586;2022-08-03T11:19:13;5.72;;;4.68;;
30872;SDS011;17579;42.690;2.586;2022-08-03T11:27:29;5.63;;;4.75;;
30872;SDS011;17579;42.690;2.586;2022-08-03T11:32:56;5.93;;;4.05;;
30872;SDS011;17579;42.690;2.586;2022-08-03T11:35:23;4.90;;;4.50;;
30872;SDS011;17579;42.690;2.586;2022-08-03T11:38:01;5.32;;;4.82;;
30872;SDS011;17579;42.690;2.586;2022-08-03T11:46:10;4.97;;;4.45;;
30872;SDS011;17579;42.690;2.586;2022-08-03T11:48:42;5.88;;;4.40;;
30872;SDS011;17579;42.690;2.586;2022-08-03T11:51:22;5.53;;;5.00;;
30872;SDS011;17579;42.690;2.586;2022-08-03T11:53:57;6.05;;;4.55;;
30872;SDS011;17579;42.690;2.586;2022-08-03T11:56:25;5.05;;;4.68;;
30872;SDS011;17579;42.690;2.586;2022-08-03T11:58:52;6.00;;;5.40;;
30872;SDS011;17579;42.690;2.586;2022-08-03T12:01:21;5.28;;;4.88;;
30872;SDS011;17579;42.690;2.586;2022-08-03T12:03:48;7.38;;;4.32;;
30872;SDS011;17579;42.690;2.586;2022-08-03T12:06:15;5.47;;;4.97;;
30872;SDS011;17579;42.690;2.586;2022-08-03T12:08:42;5.55;;;5.03;;
30872;SDS011;17579;42.690;2.586;2022-08-03T12:11:09;5.60;;;5.13;;
30872;SDS011;17579;42.690;2.586;2022-08-03T12:13:42;5.15;;;4.75;;
30872;SDS011;17579;42.690;2.586;2022-08-03T12:16:09;5.25;;;4.85;;
30872;SDS011;17579;42.690;2.586;2022-08-03T12:18:41;5.35;;;4.88;;
30872;SDS011;17579;42.690;2.586;2022-08-03T12:21:07;5.35;;;4.95;;
30872;SDS011;17579;42.690;2.586;2022-08-03T12:23:34;5.25;;;4.75;;
30872;SDS011;17579;42.690;2.586;2022-08-03T12:26:05;6.15;;;5.07;;
30872;SDS011;17579;42.690;2.586;2022-08-03T12:28:34;5.75;;;4.80;;
30872;SDS011;17579;42.690;2.586;2022-08-03T12:31:02;5.88;;;5.28;;
30872;SDS011;17579;42.690;2.586;2022-08-03T12:33:30;5.63;;;5.13;;
30872;SDS011;17579;42.690;2.586;2022-08-03T12:36:04;6.38;;;5.15;;
30872;SDS011;17579;42.690;2.586;2022-08-03T12:38:33;6.13;;;5.28;;
30872;SDS011;17579;42.690;2.586;2022-08-03T12:41:03;5.43;;;4.85;;
30872;SDS011;17579;42.690;2.586;2022-08-03T12:43:35;5.80;;;5.18;;
30872;SDS011;17579;42.690;2.586;2022-08-03T12:46:12;6.07;;;4.90;;
30872;SDS011;17579;42.690;2.586;2022-08-03T12:54:26;10.98;;;5.72;;
30872;SDS011;17579;42.690;2.586;2022-08-03T12:57:05;5.72;;;5.07;;
30872;SDS011;17579;42.690;2.586;2022-08-03T12:59:35;6.05;;;5.53;;
30872;SDS011;17579;42.690;2.586;2022-08-03T13:02:19;11.10;;;5.80;;
30872;SDS011;17579;42.690;2.586;2022-08-03T13:04:47;7.60;;;5.63;;
30872;SDS011;17579;42.690;2.586;2022-08-03T13:07:14;5.55;;;5.00;;
30872;SDS011;17579;42.690;2.586;2022-08-03T13:09:42;6.20;;;5.60;;
30872;SDS011;17579;42.690;2.586;2022-08-03T13:12:18;7.13;;;5.18;;
30872;SDS011;17579;42.690;2.586;2022-08-03T13:14:47;5.97;;;5.38;;
30872;SDS011;17579;42.690;2.586;2022-08-03T13:17:14;6.00;;;5.43;;
30872;SDS011;17579;42.690;2.586;2022-08-03T13:19:43;5.68;;;5.28;;
30872;SDS011;17579;42.690;2.586;2022-08-03T13:22:17;7.15;;;5.38;;
30872;SDS011;17579;42.690;2.586;2022-08-03T13:24:50;6.10;;;5.55;;
30872;SDS011;17579;42.690;2.586;2022-08-03T13:27:20;5.13;;;4.65;;
30872;SDS011;17579;42.690;2.586;2022-08-03T13:29:45;6.45;;;5.57;;
30872;SDS011;17579;42.690;2.586;2022-08-03T13:32:11;5.35;;;4.85;;
30872;SDS011;17579;42.690;2.586;2022-08-03T13:34:37;6.30;;;4.70;;
30872;SDS011;17579;42.690;2.586;2022-08-03T13:37:03;6.22;;;5.40;;
30872;SDS011;17579;42.690;2.586;2022-08-03T13:39:28;5.43;;;5.03;;
30872;SDS011;17579;42.690;2.586;2022-08-03T13:41:54;5.20;;;4.18;;
30872;SDS011;17579;42.690;2.586;2022-08-03T13:44:20;5.78;;;5.28;;
30872;SDS011;17579;42.690;2.586;2022-08-03T13:46:45;5.35;;;4.30;;
30872;SDS011;17579;42.690;2.586;2022-08-03T13:49:11;4.90;;;4.47;;
30872;SDS011;17579;42.690;2.586;2022-08-03T13:51:37;4.95;;;4.55;;
30872;SDS011;17579;42.690;2.586;2022-08-03T13:54:03;6.25;;;4.88;;
30872;SDS011;17579;42.690;2.586;2022-08-03T13:56:29;4.53;;;4.22;;
30872;SDS011;17579;42.690;2.586;2022-08-03T13:58:55;5.38;;;4.60;;
30872;SDS011;17579;42.690;2.586;2022-08-03T14:01:22;4.72;;;4.32;;
30872;SDS011;17579;42.690;2.586;2022-08-03T14:03:48;5.40;;;4.90;;
30872;SDS011;17579;42.690;2.586;2022-08-03T14:06:18;4.28;;;3.97;;
30872;SDS011;17579;42.690;2.586;2022-08-03T14:08:44;5.13;;;4.20;;
30872;SDS011;17579;42.690;2.586;2022-08-03T14:11:10;4.90;;;4.50;;
30872;SDS011;17579;42.690;2.586;2022-08-03T14:13:36;5.10;;;4.70;;
30872;SDS011;17579;42.690;2.586;2022-08-03T14:16:02;7.38;;;4.10;;
30872;SDS011;17579;42.690;2.586;2022-08-03T14:18:28;5.82;;;5.32;;
30872;SDS011;17579;42.690;2.586;2022-08-03T14:20:53;6.95;;;4.47;;
30872;SDS011;17579;42.690;2.586;2022-08-03T14:23:20;5.55;;;4.03;;
30872;SDS011;17579;42.690;2.586;2022-08-03T14:25:45;4.63;;;4.22;;
30872;SDS011;17579;42.690;2.586;2022-08-03T14:28:11;4.63;;;4.18;;
30872;SDS011;17579;42.690;2.586;2022-08-03T14:30:36;4.85;;;4.28;;
30872;SDS011;17579;42.690;2.586;2022-08-03T14:33:02;4.72;;;4.30;;
30872;SDS011;17579;42.690;2.586;2022-08-03T14:35:28;4.72;;;4.10;;
30872;SDS011;17579;42.690;2.586;2022-08-03T14:37:53;4.03;;;3.72;;
30872;SDS011;17579;42.690;2.586;2022-08-03T14:40:21;4.47;;;4.07;;
30872;SDS011;17579;42.690;2.586;2022-08-03T14:42:49;4.60;;;4.30;;
30872;SDS011;17579;42.690;2.586;2022-08-03T14:45:15;4.80;;;4.40;;
30872;SDS011;17579;42.690;2.586;2022-08-03T14:47:42;4.43;;;4.03;;
30872;SDS011;17579;42.690;2.586;2022-08-03T14:50:07;5.22;;;4.05;;
30872;SDS011;17579;42.690;2.586;2022-08-03T14:52:33;5.05;;;4.03;;
30872;SDS011;17579;42.690;2.586;2022-08-03T14:54:59;5.32;;;4.25;;
30872;SDS011;17579;42.690;2.586;2022-08-03T14:57:25;4.95;;;4.55;;
30872;SDS011;17579;42.690;2.586;2022-08-03T14:59:51;4.72;;;4.32;;
30872;SDS011;17579;42.690;2.586;2022-08-03T15:02:17;5.13;;;4.72;;
30872;SDS011;17579;42.690;2.586;2022-08-03T15:04:43;4.07;;;3.78;;
30872;SDS011;17579;42.690;2.586;2022-08-03T15:07:08;4.55;;;4.20;;
30872;SDS011;17579;42.690;2.586;2022-08-03T15:09:34;10.23;;;3.60;;
30872;SDS011;17579;42.690;2.586;2022-08-03T15:12:00;3.95;;;3.53;;
30872;SDS011;17579;42.690;2.586;2022-08-03T15:14:26;4.60;;;4.00;;
30872;SDS011;17579;42.690;2.586;2022-08-03T15:16:52;4.35;;;4.00;;
30872;SDS011;17579;42.690;2.586;2022-08-03T15:19:17;4.65;;;4.25;;
30872;SDS011;17579;42.690;2.586;2022-08-03T15:21:46;6.55;;;4.32;;
30872;SDS011;17579;42.690;2.586;2022-08-03T15:24:16;5.40;;;4.88;;
30872;SDS011;17579;42.690;2.586;2022-08-03T15:26:41;4.85;;;4.50;;
30872;SDS011;17579;42.690;2.586;2022-08-03T15:29:07;5.70;;;5.05;;